sensor_id;sensor_type;location;lat;lon;timestamp;temperature;humidity
35962;DHT22;22044;48.298;10.008;2022-12-07T00:01:30;3.20;99.90
35962;DHT22;22044;48.298;10.008;2022-12-07T00:04:18;3.10;99.90
35962;DHT22;22044;48.298;10.008;2022-12-07T00:07:04;3.10;99.90
35962;DHT22;22044;48.298;10.008;2022-12-07T00:09:49;3.10;99.90
35962;DHT22;22044;48.298;10.008;2022-12-07T00:12:35;3.10;99.90
35962;DHT22;22044;48.298;10.008;2022-12-07T00:15:20;3.10;99.90
35962;DHT22;22044;48.298;10.008;2022-12-07T00:18:06;3.10;99.90
35962;DHT22;22044;48.298;10.008;2022-12-07T00:20:53;3.10;99.90
35962;DHT22;22044;48.298;10.008;2022-12-07T00:23:44;3.10;99.90
35962;DHT22;22044;48.298;10.008;2022-12-07T00:26:32;3.20;99.90
35962;DHT22;22044;48.298;10.008;2022-12-07T00:29:21;3.20;99.90
35962;DHT22;22044;48.298;10.008;2022-12-07T00:32:07;3.20;99.90
35962;DHT22;22044;48.298;10.008;2022-12-07T00:34:52;3.20;99.90
35962;DHT22;22044;48.298;10.008;2022-12-07T00:37:39;3.20;99.90
35962;DHT22;22044;48.298;10.008;2022-12-07T00:40:25;3.20;99.90
35962;DHT22;22044;48.298;10.008;2022-12-07T00:43:10;3.20;99.90
35962;DHT22;22044;48.298;10.008;2022-12-07T00:45:56;3.20;99.90
35962;DHT22;22044;48.298;10.008;2022-12-07T00:48:42;3.20;99.90
35962;DHT22;22044;48.298;10.008;2022-12-07T00:51:27;3.20;99.90
35962;DHT22;22044;48.298;10.008;2022-12-07T00:54:14;3.20;99.90
35962;DHT22;22044;48.298;10.008;2022-12-07T00:57:00;3.20;99.90
35962;DHT22;22044;48.298;10.008;2022-12-07T00:59:46;3.20;99.90
35962;DHT22;22044;48.298;10.008;2022-12-07T01:02:32;3.20;99.90
35962;DHT22;22044;48.298;10.008;2022-12-07T01:05:18;3.20;99.90
35962;DHT22;22044;48.298;10.008;2022-12-07T01:08:04;3.10;99.90
35962;DHT22;22044;48.298;10.008;2022-12-07T01:10:57;2.90;99.90
35962;DHT22;22044;48.298;10.008;2022-12-07T01:13:44;2.90;99.90
35962;DHT22;22044;48.298;10.008;2022-12-07T01:16:31;2.90;99.90
35962;DHT22;22044;48.298;10.008;2022-12-07T01:19:17;3.00;99.90
35962;DHT22;22044;48.298;10.008;2022-12-07T01:22:04;3.00;99.90
35962;DHT22;22044;48.298;10.008;2022-12-07T01:24:49;2.80;99.90
35962;DHT22;22044;48.298;10.008;2022-12-07T01:27:36;2.70;99.90
35962;DHT22;22044;48.298;10.008;2022-12-07T01:30:22;2.60;99.90
35962;DHT22;22044;48.298;10.008;2022-12-07T01:33:07;2.60;99.90
35962;DHT22;22044;48.298;10.008;2022-12-07T01:35:53;2.70;99.90
35962;DHT22;22044;48.298;10.008;2022-12-07T01:38:39;2.80;99.90
35962;DHT22;22044;48.298;10.008;2022-12-07T01:41:27;2.80;99.90
35962;DHT22;22044;48.298;10.008;2022-12-07T01:44:18;2.80;99.90
35962;DHT22;22044;48.298;10.008;2022-12-07T01:47:04;2.90;99.90
35962;DHT22;22044;48.298;10.008;2022-12-07T01:49:49;2.90;99.90
35962;DHT22;22044;48.298;10.008;2022-12-07T01:52:36;2.90;99.90
35962;DHT22;22044;48.298;10.008;2022-12-07T01:55:23;2.80;99.90
35962;DHT22;22044;48.298;10.008;2022-12-07T01:58:10;2.80;99.90
35962;DHT22;22044;48.298;10.008;2022-12-07T02:00:58;2.90;99.90
35962;DHT22;22044;48.298;10.008;2022-12-07T02:03:44;2.90;99.90
35962;DHT22;22044;48.298;10.008;2022-12-07T02:06:30;2.90;99.90
35962;DHT22;22044;48.298;10.008;2022-12-07T02:09:16;2.90;99.90
35962;DHT22;22044;48.298;10.008;2022-12-07T02:12:02;3.00;99.90
35962;DHT22;22044;48.298;10.008;2022-12-07T02:14:49;3.00;99.90
35962;DHT22;22044;48.298;10.008;2022-12-07T02:17:46;3.00;99.90
35962;DHT22;22044;48.298;10.008;2022-12-07T02:20:38;3.00;99.90
35962;DHT22;22044;48.298;10.008;2022-12-07T02:27:16;3.10;99.90
35962;DHT22;22044;48.298;10.008;2022-12-07T02:30:10;3.00;99.90
35962;DHT22;22044;48.298;10.008;2022-12-07T02:33:00;3.00;99.90
35962;DHT22;22044;48.298;10.008;2022-12-07T02:35:50;3.00;99.90
35962;DHT22;22044;48.298;10.008;2022-12-07T02:38:43;3.00;99.90
35962;DHT22;22044;48.298;10.008;2022-12-07T02:41:33;3.00;99.90
35962;DHT22;22044;48.298;10.008;2022-12-07T02:44:21;3.00;99.90
35962;DHT22;22044;48.298;10.008;2022-12-07T02:47:12;2.90;99.90
35962;DHT22;22044;48.298;10.008;2022-12-07T02:49:59;2.90;99.90
35962;DHT22;22044;48.298;10.008;2022-12-07T02:52:44;2.80;99.90
35962;DHT22;22044;48.298;10.008;2022-12-07T02:55:33;2.70;99.90
35962;DHT22;22044;48.298;10.008;2022-12-07T02:58:30;2.70;99.90
35962;DHT22;22044;48.298;10.008;2022-12-07T03:01:25;2.80;99.90
35962;DHT22;22044;48.298;10.008;2022-12-07T03:04:24;2.90;99.90
35962;DHT22;22044;48.298;10.008;2022-12-07T03:07:21;2.90;99.90
35962;DHT22;22044;48.298;10.008;2022-12-07T03:10:17;2.90;99.90
35962;DHT22;22044;48.298;10.008;2022-12-07T03:13:09;2.90;99.90
35962;DHT22;22044;48.298;10.008;2022-12-07T03:15:58;3.00;99.90
35962;DHT22;22044;48.298;10.008;2022-12-07T03:18:49;3.00;99.90
35962;DHT22;22044;48.298;10.008;2022-12-07T03:21:40;3.00;99.90
35962;DHT22;22044;48.298;10.008;2022-12-07T03:24:28;3.00;99.90
35962;DHT22;22044;48.298;10.008;2022-12-07T03:27:16;2.80;99.90
35962;DHT22;22044;48.298;10.008;2022-12-07T03:30:08;2.60;99.90
35962;DHT22;22044;48.298;10.008;2022-12-07T03:32:59;2.60;99.90
35962;DHT22;22044;48.298;10.008;2022-12-07T03:35:49;2.70;99.90
35962;DHT22;22044;48.298;10.008;2022-12-07T03:38:42;2.70;99.90
35962;DHT22;22044;48.298;10.008;2022-12-07T03:41:31;2.70;99.90
35962;DHT22;22044;48.298;10.008;2022-12-07T03:44:18;2.70;99.90
35962;DHT22;22044;48.298;10.008;2022-12-07T03:47:07;2.70;99.90
35962;DHT22;22044;48.298;10.008;2022-12-07T03:50:00;2.50;99.90
35962;DHT22;22044;48.298;10.008;2022-12-07T03:52:53;2.50;99.90
35962;DHT22;22044;48.298;10.008;2022-12-07T03:55:43;2.60;99.90
35962;DHT22;22044;48.298;10.008;2022-12-07T03:58:30;2.60;99.90
35962;DHT22;22044;48.298;10.008;2022-12-07T04:01:17;2.70;99.90
35962;DHT22;22044;48.298;10.008;2022-12-07T04:04:03;2.60;99.90
35962;DHT22;22044;48.298;10.008;2022-12-07T04:06:49;2.60;99.90
35962;DHT22;22044;48.298;10.008;2022-12-07T04:09:35;2.70;99.90
35962;DHT22;22044;48.298;10.008;2022-12-07T04:12:22;2.70;99.90
35962;DHT22;22044;48.298;10.008;2022-12-07T04:15:08;2.80;99.90
35962;DHT22;22044;48.298;10.008;2022-12-07T04:17:54;2.80;99.90
35962;DHT22;22044;48.298;10.008;2022-12-07T04:20:40;2.80;99.90
35962;DHT22;22044;48.298;10.008;2022-12-07T04:23:25;2.80;99.90
35962;DHT22;22044;48.298;10.008;2022-12-07T04:26:11;2.90;99.90
35962;DHT22;22044;48.298;10.008;2022-12-07T04:28:58;2.90;99.90
35962;DHT22;22044;48.298;10.008;2022-12-07T04:31:44;2.90;99.90
35962;DHT22;22044;48.298;10.008;2022-12-07T04:34:30;2.90;99.90
35962;DHT22;22044;48.298;10.008;2022-12-07T04:37:16;2.90;99.90
35962;DHT22;22044;48.298;10.008;2022-12-07T04:40:01;2.90;99.90
35962;DHT22;22044;48.298;10.008;2022-12-07T04:42:47;3.00;99.90
35962;DHT22;22044;48.298;10.008;2022-12-07T04:45:34;2.90;99.90
35962;DHT22;22044;48.298;10.008;2022-12-07T04:48:19;2.90;99.90
35962;DHT22;22044;48.298;10.008;2022-12-07T04:51:05;3.00;99.90
35962;DHT22;22044;48.298;10.008;2022-12-07T04:53:51;2.90;99.90
35962;DHT22;22044;48.298;10.008;2022-12-07T04:56:37;2.90;99.90
35962;DHT22;22044;48.298;10.008;2022-12-07T04:59:23;2.90;99.90
35962;DHT22;22044;48.298;10.008;2022-12-07T05:02:10;2.80;99.90
35962;DHT22;22044;48.298;10.008;2022-12-07T05:04:56;2.90;99.90
35962;DHT22;22044;48.298;10.008;2022-12-07T05:07:41;2.90;99.90
35962;DHT22;22044;48.298;10.008;2022-12-07T05:10:27;2.80;99.90
35962;DHT22;22044;48.298;10.008;2022-12-07T05:13:13;2.80;99.90
35962;DHT22;22044;48.298;10.008;2022-12-07T05:15:58;2.80;99.90
35962;DHT22;22044;48.298;10.008;2022-12-07T05:18:46;2.70;99.90
35962;DHT22;22044;48.298;10.008;2022-12-07T05:21:32;2.80;99.90
35962;DHT22;22044;48.298;10.008;2022-12-07T05:24:17;2.70;99.90
35962;DHT22;22044;48.298;10.008;2022-12-07T05:27:03;2.80;99.90
35962;DHT22;22044;48.298;10.008;2022-12-07T05:29:49;2.80;99.90
35962;DHT22;22044;48.298;10.008;2022-12-07T05:32:35;2.80;99.90
35962;DHT22;22044;48.298;10.008;2022-12-07T05:35:22;2.80;99.90
35962;DHT22;22044;48.298;10.008;2022-12-07T05:38:07;2.80;99.90
35962;DHT22;22044;48.298;10.008;2022-12-07T05:40:53;2.80;99.90
35962;DHT22;22044;48.298;10.008;2022-12-07T05:43:39;2.80;99.90
35962;DHT22;22044;48.298;10.008;2022-12-07T05:46:24;2.50;99.90
35962;DHT22;22044;48.298;10.008;2022-12-07T05:49:10;2.40;99.90
35962;DHT22;22044;48.298;10.008;2022-12-07T05:51:57;2.40;99.90
35962;DHT22;22044;48.298;10.008;2022-12-07T05:54:43;2.50;99.90
35962;DHT22;22044;48.298;10.008;2022-12-07T05:57:28;2.50;99.90
35962;DHT22;22044;48.298;10.008;2022-12-07T06:00:14;2.40;99.90
35962;DHT22;22044;48.298;10.008;2022-12-07T06:02:59;2.20;99.90
35962;DHT22;22044;48.298;10.008;2022-12-07T06:05:45;2.30;99.90
35962;DHT22;22044;48.298;10.008;2022-12-07T06:08:32;2.40;99.90
35962;DHT22;22044;48.298;10.008;2022-12-07T06:11:17;2.30;99.90
35962;DHT22;22044;48.298;10.008;2022-12-07T06:14:21;2.40;99.90
35962;DHT22;22044;48.298;10.008;2022-12-07T06:17:07;2.40;99.90
35962;DHT22;22044;48.298;10.008;2022-12-07T06:19:52;2.40;99.90
35962;DHT22;22044;48.298;10.008;2022-12-07T06:22:38;2.30;99.90
35962;DHT22;22044;48.298;10.008;2022-12-07T06:25:25;2.10;99.90
35962;DHT22;22044;48.298;10.008;2022-12-07T06:28:11;2.10;99.90
35962;DHT22;22044;48.298;10.008;2022-12-07T06:30:57;2.00;99.90
35962;DHT22;22044;48.298;10.008;2022-12-07T06:33:43;2.10;99.90
35962;DHT22;22044;48.298;10.008;2022-12-07T06:36:29;1.90;99.90
35962;DHT22;22044;48.298;10.008;2022-12-07T06:39:14;1.90;99.90
35962;DHT22;22044;48.298;10.008;2022-12-07T06:42:02;2.00;99.90
35962;DHT22;22044;48.298;10.008;2022-12-07T06:44:47;2.10;99.90
35962;DHT22;22044;48.298;10.008;2022-12-07T06:47:33;2.20;99.90
35962;DHT22;22044;48.298;10.008;2022-12-07T06:50:18;2.20;99.90
35962;DHT22;22044;48.298;10.008;2022-12-07T06:53:04;2.20;99.90
35962;DHT22;22044;48.298;10.008;2022-12-07T06:55:50;2.10;99.90
35962;DHT22;22044;48.298;10.008;2022-12-07T06:58:37;1.90;99.90
35962;DHT22;22044;48.298;10.008;2022-12-07T07:01:23;1.90;99.90
35962;DHT22;22044;48.298;10.008;2022-12-07T07:04:08;2.00;99.90
35962;DHT22;22044;48.298;10.008;2022-12-07T07:06:54;2.00;99.90
35962;DHT22;22044;48.298;10.008;2022-12-07T07:09:40;2.00;99.90
35962;DHT22;22044;48.298;10.008;2022-12-07T07:12:25;2.00;99.90
35962;DHT22;22044;48.298;10.008;2022-12-07T07:15:12;2.00;99.90
35962;DHT22;22044;48.298;10.008;2022-12-07T07:17:57;2.10;99.90
35962;DHT22;22044;48.298;10.008;2022-12-07T07:20:43;1.90;99.90
35962;DHT22;22044;48.298;10.008;2022-12-07T07:23:29;1.60;99.90
35962;DHT22;22044;48.298;10.008;2022-12-07T07:26:15;1.50;99.90
35962;DHT22;22044;48.298;10.008;2022-12-07T07:29:01;1.30;99.90
35962;DHT22;22044;48.298;10.008;2022-12-07T07:31:48;1.20;99.90
35962;DHT22;22044;48.298;10.008;2022-12-07T07:34:33;1.10;99.90
35962;DHT22;22044;48.298;10.008;2022-12-07T07:37:19;1.00;99.90
35962;DHT22;22044;48.298;10.008;2022-12-07T07:40:06;1.10;99.90
35962;DHT22;22044;48.298;10.008;2022-12-07T07:42:53;1.00;99.90
35962;DHT22;22044;48.298;10.008;2022-12-07T07:45:38;1.10;99.90
35962;DHT22;22044;48.298;10.008;2022-12-07T07:48:26;1.20;99.90
35962;DHT22;22044;48.298;10.008;2022-12-07T07:51:11;1.10;99.90
35962;DHT22;22044;48.298;10.008;2022-12-07T07:53:57;0.90;99.90
35962;DHT22;22044;48.298;10.008;2022-12-07T07:56:42;0.80;99.90
35962;DHT22;22044;48.298;10.008;2022-12-07T07:59:28;0.80;99.90
35962;DHT22;22044;48.298;10.008;2022-12-07T08:02:15;0.80;99.90
35962;DHT22;22044;48.298;10.008;2022-12-07T08:05:02;0.80;99.90
35962;DHT22;22044;48.298;10.008;2022-12-07T08:07:48;0.70;99.90
35962;DHT22;22044;48.298;10.008;2022-12-07T08:10:33;0.60;99.90
35962;DHT22;22044;48.298;10.008;2022-12-07T08:13:19;0.60;99.90
35962;DHT22;22044;48.298;10.008;2022-12-07T08:16:06;0.60;99.90
35962;DHT22;22044;48.298;10.008;2022-12-07T08:18:52;0.70;99.90
35962;DHT22;22044;48.298;10.008;2022-12-07T08:21:39;0.90;99.90
35962;DHT22;22044;48.298;10.008;2022-12-07T08:24:25;1.10;99.90
35962;DHT22;22044;48.298;10.008;2022-12-07T08:27:11;1.30;99.90
35962;DHT22;22044;48.298;10.008;2022-12-07T08:29:56;1.50;99.90
35962;DHT22;22044;48.298;10.008;2022-12-07T08:32:44;1.80;99.90
35962;DHT22;22044;48.298;10.008;2022-12-07T08:35:32;2.00;99.90
35962;DHT22;22044;48.298;10.008;2022-12-07T08:38:19;2.30;99.90
35962;DHT22;22044;48.298;10.008;2022-12-07T08:41:05;2.40;99.90
35962;DHT22;22044;48.298;10.008;2022-12-07T08:43:51;2.70;99.90
35962;DHT22;22044;48.298;10.008;2022-12-07T08:46:38;3.20;99.90
35962;DHT22;22044;48.298;10.008;2022-12-07T08:49:27;3.30;99.90
35962;DHT22;22044;48.298;10.008;2022-12-07T08:52:13;3.60;99.90
35962;DHT22;22044;48.298;10.008;2022-12-07T08:55:00;3.90;99.90
35962;DHT22;22044;48.298;10.008;2022-12-07T08:57:48;4.00;99.90
35962;DHT22;22044;48.298;10.008;2022-12-07T09:00:33;4.30;99.90
35962;DHT22;22044;48.298;10.008;2022-12-07T09:03:19;4.60;99.90
35962;DHT22;22044;48.298;10.008;2022-12-07T09:06:05;4.40;99.90
35962;DHT22;22044;48.298;10.008;2022-12-07T09:08:55;4.40;99.90
35962;DHT22;22044;48.298;10.008;2022-12-07T09:11:45;4.60;99.90
35962;DHT22;22044;48.298;10.008;2022-12-07T09:14:30;4.70;99.90
35962;DHT22;22044;48.298;10.008;2022-12-07T09:17:16;4.90;99.90
35962;DHT22;22044;48.298;10.008;2022-12-07T09:20:02;4.80;99.90
35962;DHT22;22044;48.298;10.008;2022-12-07T09:22:48;4.50;99.90
35962;DHT22;22044;48.298;10.008;2022-12-07T09:25:34;4.30;99.90
35962;DHT22;22044;48.298;10.008;2022-12-07T09:28:21;4.20;99.90
35962;DHT22;22044;48.298;10.008;2022-12-07T09:31:07;4.10;99.90
35962;DHT22;22044;48.298;10.008;2022-12-07T09:33:54;4.10;99.90
35962;DHT22;22044;48.298;10.008;2022-12-07T09:36:39;4.10;99.90
35962;DHT22;22044;48.298;10.008;2022-12-07T09:39:27;4.00;99.90
35962;DHT22;22044;48.298;10.008;2022-12-07T09:42:26;3.80;99.90
35962;DHT22;22044;48.298;10.008;2022-12-07T09:45:16;3.90;99.90
35962;DHT22;22044;48.298;10.008;2022-12-07T09:48:03;3.70;99.90
35962;DHT22;22044;48.298;10.008;2022-12-07T09:50:50;3.70;99.90
35962;DHT22;22044;48.298;10.008;2022-12-07T09:53:37;3.70;99.90
35962;DHT22;22044;48.298;10.008;2022-12-07T09:56:23;3.80;99.90
35962;DHT22;22044;48.298;10.008;2022-12-07T09:59:13;4.00;99.90
35962;DHT22;22044;48.298;10.008;2022-12-07T10:02:33;3.90;99.90
35962;DHT22;22044;48.298;10.008;2022-12-07T10:05:22;3.90;99.90
35962;DHT22;22044;48.298;10.008;2022-12-07T10:08:11;3.90;99.90
35962;DHT22;22044;48.298;10.008;2022-12-07T10:10:57;3.90;99.90
35962;DHT22;22044;48.298;10.008;2022-12-07T10:13:45;3.90;99.90
35962;DHT22;22044;48.298;10.008;2022-12-07T10:16:37;3.90;99.90
35962;DHT22;22044;48.298;10.008;2022-12-07T10:19:27;3.90;99.90
35962;DHT22;22044;48.298;10.008;2022-12-07T10:22:15;3.90;99.90
35962;DHT22;22044;48.298;10.008;2022-12-07T10:25:08;3.80;99.90
35962;DHT22;22044;48.298;10.008;2022-12-07T10:28:03;3.70;99.90
35962;DHT22;22044;48.298;10.008;2022-12-07T10:30:57;3.80;99.90
35962;DHT22;22044;48.298;10.008;2022-12-07T10:33:49;3.80;99.90
35962;DHT22;22044;48.298;10.008;2022-12-07T10:36:38;3.60;99.90
35962;DHT22;22044;48.298;10.008;2022-12-07T10:39:24;3.70;99.90
35962;DHT22;22044;48.298;10.008;2022-12-07T10:42:17;3.70;99.90
35962;DHT22;22044;48.298;10.008;2022-12-07T10:45:13;3.70;99.90
35962;DHT22;22044;48.298;10.008;2022-12-07T10:48:04;3.70;99.90
35962;DHT22;22044;48.298;10.008;2022-12-07T10:51:00;3.70;99.90
35962;DHT22;22044;48.298;10.008;2022-12-07T10:54:10;3.70;99.90
35962;DHT22;22044;48.298;10.008;2022-12-07T10:57:19;3.70;99.90
35962;DHT22;22044;48.298;10.008;2022-12-07T11:00:16;3.60;99.90
35962;DHT22;22044;48.298;10.008;2022-12-07T11:06:35;3.80;99.90
35962;DHT22;22044;48.298;10.008;2022-12-07T11:12:56;4.10;99.90
35962;DHT22;22044;48.298;10.008;2022-12-07T11:15:55;4.30;99.90
35962;DHT22;22044;48.298;10.008;2022-12-07T11:18:55;4.50;99.90
35962;DHT22;22044;48.298;10.008;2022-12-07T11:21:50;4.60;99.90
35962;DHT22;22044;48.298;10.008;2022-12-07T11:24:47;4.60;99.90
35962;DHT22;22044;48.298;10.008;2022-12-07T11:27:38;4.80;99.90
35962;DHT22;22044;48.298;10.008;2022-12-07T11:30:29;4.80;99.90
35962;DHT22;22044;48.298;10.008;2022-12-07T11:33:21;4.90;99.90
35962;DHT22;22044;48.298;10.008;2022-12-07T11:36:29;4.90;99.90
35962;DHT22;22044;48.298;10.008;2022-12-07T11:39:24;5.00;99.90
35962;DHT22;22044;48.298;10.008;2022-12-07T11:42:16;5.10;99.90
35962;DHT22;22044;48.298;10.008;2022-12-07T11:45:14;5.00;99.90
35962;DHT22;22044;48.298;10.008;2022-12-07T11:48:02;5.10;99.90
35962;DHT22;22044;48.298;10.008;2022-12-07T11:50:52;5.20;99.90
35962;DHT22;22044;48.298;10.008;2022-12-07T11:53:41;5.30;99.90
35962;DHT22;22044;48.298;10.008;2022-12-07T11:56:30;5.20;99.90
35962;DHT22;22044;48.298;10.008;2022-12-07T11:59:25;5.20;99.90
35962;DHT22;22044;48.298;10.008;2022-12-07T12:02:16;5.20;99.90
35962;DHT22;22044;48.298;10.008;2022-12-07T12:05:07;5.20;99.90
35962;DHT22;22044;48.298;10.008;2022-12-07T12:08:03;5.30;99.90
35962;DHT22;22044;48.298;10.008;2022-12-07T12:11:02;5.30;99.90
35962;DHT22;22044;48.298;10.008;2022-12-07T12:14:24;5.40;99.90
35962;DHT22;22044;48.298;10.008;2022-12-07T12:17:43;5.30;99.90
35962;DHT22;22044;48.298;10.008;2022-12-07T12:20:36;5.40;99.90
35962;DHT22;22044;48.298;10.008;2022-12-07T12:23:27;5.60;99.90
35962;DHT22;22044;48.298;10.008;2022-12-07T12:26:21;5.60;99.90
35962;DHT22;22044;48.298;10.008;2022-12-07T12:29:21;5.60;99.90
35962;DHT22;22044;48.298;10.008;2022-12-07T12:32:14;5.60;99.90
35962;DHT22;22044;48.298;10.008;2022-12-07T12:38:29;5.50;99.90
35962;DHT22;22044;48.298;10.008;2022-12-07T12:45:20;5.40;99.90
35962;DHT22;22044;48.298;10.008;2022-12-07T12:48:29;5.40;99.90
35962;DHT22;22044;48.298;10.008;2022-12-07T12:51:37;5.30;99.90
35962;DHT22;22044;48.298;10.008;2022-12-07T12:54:26;5.40;99.90
35962;DHT22;22044;48.298;10.008;2022-12-07T12:57:15;5.40;99.90
35962;DHT22;22044;48.298;10.008;2022-12-07T13:00:16;5.40;99.90
35962;DHT22;22044;48.298;10.008;2022-12-07T13:03:02;5.50;99.90
35962;DHT22;22044;48.298;10.008;2022-12-07T13:06:19;5.50;99.90
35962;DHT22;22044;48.298;10.008;2022-12-07T13:09:22;5.50;99.90
35962;DHT22;22044;48.298;10.008;2022-12-07T13:12:13;5.50;99.90
35962;DHT22;22044;48.298;10.008;2022-12-07T13:14:59;5.50;99.90
35962;DHT22;22044;48.298;10.008;2022-12-07T13:18:01;5.50;99.90
35962;DHT22;22044;48.298;10.008;2022-12-07T13:20:50;5.40;99.90
35962;DHT22;22044;48.298;10.008;2022-12-07T13:23:36;5.40;99.90
35962;DHT22;22044;48.298;10.008;2022-12-07T13:26:24;5.40;99.90
35962;DHT22;22044;48.298;10.008;2022-12-07T13:29:20;5.30;99.90
35962;DHT22;22044;48.298;10.008;2022-12-07T13:32:23;5.10;99.90
35962;DHT22;22044;48.298;10.008;2022-12-07T13:35:29;5.10;99.90
35962;DHT22;22044;48.298;10.008;2022-12-07T13:38:23;5.00;99.90
35962;DHT22;22044;48.298;10.008;2022-12-07T13:41:15;5.00;99.90
35962;DHT22;22044;48.298;10.008;2022-12-07T13:44:05;5.00;99.90
35962;DHT22;22044;48.298;10.008;2022-12-07T13:47:00;5.00;99.90
35962;DHT22;22044;48.298;10.008;2022-12-07T13:49:48;5.00;99.90
35962;DHT22;22044;48.298;10.008;2022-12-07T13:52:43;5.00;99.90
35962;DHT22;22044;48.298;10.008;2022-12-07T13:55:31;5.00;99.90
35962;DHT22;22044;48.298;10.008;2022-12-07T13:58:17;5.00;99.90
35962;DHT22;22044;48.298;10.008;2022-12-07T14:01:03;4.90;99.90
35962;DHT22;22044;48.298;10.008;2022-12-07T14:03:48;4.90;99.90
35962;DHT22;22044;48.298;10.008;2022-12-07T14:06:34;4.90;99.90
35962;DHT22;22044;48.298;10.008;2022-12-07T14:09:21;4.90;99.90
35962;DHT22;22044;48.298;10.008;2022-12-07T14:12:09;4.80;99.90
35962;DHT22;22044;48.298;10.008;2022-12-07T14:14:55;4.70;99.90
35962;DHT22;22044;48.298;10.008;2022-12-07T14:17:50;4.60;99.90
35962;DHT22;22044;48.298;10.008;2022-12-07T14:20:38;4.60;99.90
35962;DHT22;22044;48.298;10.008;2022-12-07T14:23:25;4.60;99.90
35962;DHT22;22044;48.298;10.008;2022-12-07T14:26:12;4.60;99.90
35962;DHT22;22044;48.298;10.008;2022-12-07T14:29:22;4.60;99.90
35962;DHT22;22044;48.298;10.008;2022-12-07T14:32:20;4.60;99.90
35962;DHT22;22044;48.298;10.008;2022-12-07T14:35:10;4.60;99.90
35962;DHT22;22044;48.298;10.008;2022-12-07T14:37:56;4.60;99.90
35962;DHT22;22044;48.298;10.008;2022-12-07T14:40:41;4.50;99.90
35962;DHT22;22044;48.298;10.008;2022-12-07T14:43:27;4.50;99.90
35962;DHT22;22044;48.298;10.008;2022-12-07T14:46:14;4.50;99.90
35962;DHT22;22044;48.298;10.008;2022-12-07T14:49:00;4.50;99.90
35962;DHT22;22044;48.298;10.008;2022-12-07T14:51:46;4.40;99.90
35962;DHT22;22044;48.298;10.008;2022-12-07T14:54:32;4.40;99.90
35962;DHT22;22044;48.298;10.008;2022-12-07T14:57:19;4.40;99.90
35962;DHT22;22044;48.298;10.008;2022-12-07T15:00:06;4.30;99.90
35962;DHT22;22044;48.298;10.008;2022-12-07T15:02:53;4.30;99.90
35962;DHT22;22044;48.298;10.008;2022-12-07T15:05:39;4.30;99.90
35962;DHT22;22044;48.298;10.008;2022-12-07T15:08:24;4.30;99.90
35962;DHT22;22044;48.298;10.008;2022-12-07T15:11:11;4.30;99.90
35962;DHT22;22044;48.298;10.008;2022-12-07T15:13:58;4.20;99.90
35962;DHT22;22044;48.298;10.008;2022-12-07T15:16:52;4.20;99.90
35962;DHT22;22044;48.298;10.008;2022-12-07T15:19:39;4.20;99.90
35962;DHT22;22044;48.298;10.008;2022-12-07T15:22:26;4.20;99.90
35962;DHT22;22044;48.298;10.008;2022-12-07T15:25:14;4.10;99.90
35962;DHT22;22044;48.298;10.008;2022-12-07T15:28:01;4.10;99.90
35962;DHT22;22044;48.298;10.008;2022-12-07T15:30:46;4.00;99.90
35962;DHT22;22044;48.298;10.008;2022-12-07T15:33:32;4.00;99.90
35962;DHT22;22044;48.298;10.008;2022-12-07T15:36:21;3.90;99.90
35962;DHT22;22044;48.298;10.008;2022-12-07T15:39:08;3.80;99.90
35962;DHT22;22044;48.298;10.008;2022-12-07T15:41:54;3.60;99.90
35962;DHT22;22044;48.298;10.008;2022-12-07T15:44:39;3.60;99.90
35962;DHT22;22044;48.298;10.008;2022-12-07T15:47:43;3.60;99.90
35962;DHT22;22044;48.298;10.008;2022-12-07T15:50:29;3.60;99.90
35962;DHT22;22044;48.298;10.008;2022-12-07T15:53:16;3.60;99.90
35962;DHT22;22044;48.298;10.008;2022-12-07T15:56:05;3.50;99.90
35962;DHT22;22044;48.298;10.008;2022-12-07T15:58:51;3.40;99.90
35962;DHT22;22044;48.298;10.008;2022-12-07T16:01:37;3.40;99.90
35962;DHT22;22044;48.298;10.008;2022-12-07T16:04:23;3.30;99.90
35962;DHT22;22044;48.298;10.008;2022-12-07T16:07:09;3.20;99.90
35962;DHT22;22044;48.298;10.008;2022-12-07T16:09:57;3.20;99.90
35962;DHT22;22044;48.298;10.008;2022-12-07T16:12:42;3.20;99.90
35962;DHT22;22044;48.298;10.008;2022-12-07T16:15:28;3.10;99.90
35962;DHT22;22044;48.298;10.008;2022-12-07T16:18:14;3.20;99.90
35962;DHT22;22044;48.298;10.008;2022-12-07T16:20:59;3.20;99.90
35962;DHT22;22044;48.298;10.008;2022-12-07T16:23:45;3.20;99.90
35962;DHT22;22044;48.298;10.008;2022-12-07T16:26:32;3.20;99.90
35962;DHT22;22044;48.298;10.008;2022-12-07T16:29:19;3.20;99.90
35962;DHT22;22044;48.298;10.008;2022-12-07T16:32:05;3.20;99.90
35962;DHT22;22044;48.298;10.008;2022-12-07T16:34:51;3.20;99.90
35962;DHT22;22044;48.298;10.008;2022-12-07T16:37:37;3.10;99.90
35962;DHT22;22044;48.298;10.008;2022-12-07T16:40:23;3.10;99.90
35962;DHT22;22044;48.298;10.008;2022-12-07T16:43:11;3.20;99.90
35962;DHT22;22044;48.298;10.008;2022-12-07T16:45:58;3.10;99.90
35962;DHT22;22044;48.298;10.008;2022-12-07T16:48:44;2.80;99.90
35962;DHT22;22044;48.298;10.008;2022-12-07T16:51:30;2.50;99.90
35962;DHT22;22044;48.298;10.008;2022-12-07T16:54:16;2.10;99.90
35962;DHT22;22044;48.298;10.008;2022-12-07T16:57:01;2.30;99.90
35962;DHT22;22044;48.298;10.008;2022-12-07T16:59:49;2.40;99.90
35962;DHT22;22044;48.298;10.008;2022-12-07T17:02:34;2.40;99.90
35962;DHT22;22044;48.298;10.008;2022-12-07T17:05:20;2.20;99.90
35962;DHT22;22044;48.298;10.008;2022-12-07T17:08:06;2.00;99.90
35962;DHT22;22044;48.298;10.008;2022-12-07T17:10:52;2.00;99.90
35962;DHT22;22044;48.298;10.008;2022-12-07T17:13:37;2.00;99.90
35962;DHT22;22044;48.298;10.008;2022-12-07T17:16:42;2.00;99.90
35962;DHT22;22044;48.298;10.008;2022-12-07T17:19:28;2.10;99.90
35962;DHT22;22044;48.298;10.008;2022-12-07T17:22:25;2.00;99.90
35962;DHT22;22044;48.298;10.008;2022-12-07T17:25:10;1.70;99.90
35962;DHT22;22044;48.298;10.008;2022-12-07T17:27:56;1.40;99.90
35962;DHT22;22044;48.298;10.008;2022-12-07T17:30:42;1.30;99.90
35962;DHT22;22044;48.298;10.008;2022-12-07T17:33:27;1.00;99.90
35962;DHT22;22044;48.298;10.008;2022-12-07T17:36:15;0.80;99.90
35962;DHT22;22044;48.298;10.008;2022-12-07T17:39:06;0.90;99.90
35962;DHT22;22044;48.298;10.008;2022-12-07T17:41:52;1.00;99.90
35962;DHT22;22044;48.298;10.008;2022-12-07T17:44:55;1.10;99.90
35962;DHT22;22044;48.298;10.008;2022-12-07T17:47:41;1.00;99.90
35962;DHT22;22044;48.298;10.008;2022-12-07T17:50:27;0.90;99.90
35962;DHT22;22044;48.298;10.008;2022-12-07T17:53:35;0.90;99.90
35962;DHT22;22044;48.298;10.008;2022-12-07T17:56:22;1.00;99.90
35962;DHT22;22044;48.298;10.008;2022-12-07T17:59:08;1.10;99.90
35962;DHT22;22044;48.298;10.008;2022-12-07T18:01:54;1.00;99.90
35962;DHT22;22044;48.298;10.008;2022-12-07T18:04:40;1.00;99.90